KABY/ABY METAR and TAF weather

Enter ICAO airport designator
Station Type Date Time Source
KABY METAR 2019/02/23 16:53 UTC NOAA

KABY 231653Z 21009KT 170V240 10SM BKN025 BKN031 27/19 A3013 RMK AO2 SLP201 T02670189


Station Type Date Time Source
KABY Decoded METAR 2019/02/23 16:53 UTC NOAA

ALBANY SOUTHWEST GEORGIA, GA, United States (KABY) 31-32N 084-12W 58M
Feb 23, 2019 - 11:53 AM EST / 2019.02.23 1653 UTC
Wind: from the SSW (210 degrees) at 10 MPH (9 KT) (direction variable):0
Visibility: 10 mile(s):0
Sky conditions: mostly cloudy
Temperature: 80.1 F (26.7 C)
Dew Point: 66.0 F (18.9 C)
Relative Humidity: 62%
Pressure (altimeter): 30.13 in. Hg (1020 hPa)
ob: KABY 231653Z 21009KT 170V240 10SM BKN025 BKN031 27/19 A3013 RMK AO2 SLP201 T02670189
cycle: 17

Station Type Date Time Source
KABY TAF 2019/02/23 12:24 UTC NOAA

TAF KABY 231122Z 2312/2412 VRB04KT P6SM BKN015
FM231700 18011KT P6SM SCT025 BKN035
FM240600 21008KT 4SM BR BKN015


Example: see airport list